首页
METAR-TAF:

METAR-TAF

机场 :

巴黎-勒布尔热机场

巴黎, 法国

纬度: 48-58N, 经度: 002-27E, 海拔: 66米

当前天气观测

该预报发布于30分钟前的04:00 UTC
风速2节,风向东北
温度 7°C
湿度 100%
气压 1023 hPa
能見度: 6000
多云层高于200英尺
阴天层高于700英尺

METAR: LFPB 220400Z AUTO 04002KT 6000 BKN002 OVC007 07/07 Q1023 TEMPO 0300 FG

时间: 06:30 (04:30 UTC)

预报

该预报发布于5小时和30分钟前的23:00 UTC
预报有效从22日的 00点(UTC)到 22日的 24点(UTC)
风速3节,风向多变
能見度: 8000
成为
从 22日的 00点(UTC)到 22日的 03点(UTC)
能見度: 3000
轻雾
几率 40% :
短暂存在
从 22日的 00点(UTC)到 22日的 03点(UTC)
能見度: 0500
成为
从 22日的 03点(UTC)到 22日的 05点(UTC)
能見度: 0600
多云层高于100英尺
短暂存在
从 22日的 05点(UTC)到 22日的 09点(UTC)
能見度: 0300
成为
从 22日的 10点(UTC)到 22日的 13点(UTC)
能見度: 8000
散云层高于900英尺
短暂存在
从 22日的 13点(UTC)到 22日的 17点(UTC)
多云层高于900英尺
成为
从 22日的 17点(UTC)到 22日的 19点(UTC)
风速10节,风向东北

TAF: LFPB 212300Z 2200/2224 VRB03KT 8000 NSC BECMG 2200/2203 3000 BR PROB40 TEMPO 2200/2203 0500 FG VV/// BECMG 2203/2205 0600 FG BKN001 TEMPO 2205/2209 0300 FG BECMG 2210/2213 8000 NSW SCT009 TEMPO 2213/2217 BKN009 BECMG 2217/2219 04010KT

超过4000个机场的气象观测和天气预报(METAR&TAF报告)。

可查询的气象台以黄色和红色小点在地图上表示。

将鼠标移到小点上方,可查看气象台名称。

然后点击查看天气观测和预报。

如需切换地图:点击带黑十字的绿色按钮放大地图;点击带横线的绿色按钮缩小地图;或者点击绿色箭头查看邻近地区的地图。


METAR-TAF: